WetterOnline ( https://www.wetteronline.de )

Wetter aktuell Grevesmühlen

Aktuelles Wetter: Boltenhagen (17m)

6-stündlich | Neueste Meldungen
Ortszeit Temperatur Wetter
Sa, 04.02. 7:00 2.1° C leicht bewölkt
Sa, 04.02. 1:00 3.5° C bedeckt
Fr, 03.02. 19:00 6.2° C Sprühregen
Fr, 03.02. 13:00 7.7° C bewölkt
Fr, 03.02. 7:00 6.9° C leichter Regen
Fr, 03.02. 1:00 2.8° C leichter Regen
Do, 02.02. 19:00 1.4° C bedeckt
Do, 02.02. 13:00 4.8° C leicht bewölkt
Ortszeit Temperatur Wetter
Sa, 04.02. 7:00 2.1° C leicht bewölkt
Sa, 04.02. 6:40 2.4° C wolkig
Sa, 04.02. 6:30 2.5° C wolkig
Sa, 04.02. 6:20 2.5° C wolkig
Sa, 04.02. 6:10 2.4° C wolkig
Sa, 04.02. 6:00 2.6° C bewölkt
Sa, 04.02. 5:50 2.6° C bewölkt
Sa, 04.02. 5:30 2.5° C leicht bewölkt
Sa, 04.02. 5:00 3.0° C bedeckt
Sa, 04.02. 4:30 3.2° C bewölkt
Sa, 04.02. 4:00 3.2° C bedeckt
Ortszeit Relative Feuchte Sichtweite
Sa, 04.02. 7:00 76% 60 km
Sa, 04.02. 1:00 76% 50 km
Fr, 03.02. 19:00 82% 14 km
Fr, 03.02. 13:00 72% 17 km
Fr, 03.02. 7:00 95% 6 km
Fr, 03.02. 1:00 94% 9 km
Do, 02.02. 19:00 90% 29 km
Do, 02.02. 13:00 78% 40 km
Ortszeit Relative Feuchte Sichtweite
Sa, 04.02. 7:00 76% 60 km
Sa, 04.02. 6:40 78% -
Sa, 04.02. 6:30 78% 55 km
Sa, 04.02. 6:20 78% -
Sa, 04.02. 6:10 76% -
Sa, 04.02. 6:00 78% >70 km
Sa, 04.02. 5:50 78% -
Sa, 04.02. 5:30 79% 60 km
Sa, 04.02. 5:00 78% 60 km
Sa, 04.02. 4:30 76% 60 km
Sa, 04.02. 4:00 75% 55 km
Ortszeit Niederschlagsmenge Niederschlagsart
Sa, 04.02. 7:00 0.5 l/m2 in 12 Std. -
Sa, 04.02. 1:00 0.5 l/m2 in 6 Std. Regen
Fr, 03.02. 19:00 3 l/m2 in 12 Std. Regen
Fr, 03.02. 13:00 3 l/m2 in 6 Std. Regen
Fr, 03.02. 7:00 4 l/m2 in 12 Std. Regen
Fr, 03.02. 1:00 3 l/m2 in 6 Std. Regen
Do, 02.02. 19:00 0.0 l/m2 in 12 Std. -
Do, 02.02. 13:00 0.0 l/m2 in 6 Std. -
Ortszeit Niederschlagsmenge Niederschlagsart
Sa, 04.02. 7:00 0.0 l/m2 in 1 Std. -
Sa, 04.02. 6:40 keine Meldung -
Sa, 04.02. 6:30 0.0 l/m2 in 30 Min -
Sa, 04.02. 6:20 keine Meldung -
Sa, 04.02. 6:10 keine Meldung -
Sa, 04.02. 6:00 0.0 l/m2 in 1 Std. -
Sa, 04.02. 5:50 keine Meldung -
Sa, 04.02. 5:30 0.0 l/m2 in 30 Min -
Sa, 04.02. 5:00 0.0 l/m2 in 1 Std. -
Sa, 04.02. 4:30 0.0 l/m2 in 30 Min -
Sa, 04.02. 4:00 0.0 l/m2 in 1 Std. -
Ortszeit Stärke Spitze Richtung
km/h Bft. km/h Grad Sektor
Sa, 04.02. 7:00 14 3 40 30° NO
Sa, 04.02. 1:00 33 5 63 20° N
Fr, 03.02. 19:00 36 5 65 300° NW
Fr, 03.02. 13:00 41 6 96 280° W
Fr, 03.02. 7:00 39 6 56 250° W
Fr, 03.02. 1:00 22 4 43 200° S
Do, 02.02. 19:00 11 2 29 200° S
Do, 02.02. 13:00 17 3 39 320° NW
Ortszeit Stärke Spitze Richtung
km/h Bft. km/h Grad Sektor
Sa, 04.02. 7:00 14 3 22 30° NO
Sa, 04.02. 6:40 19 3 - 40° NO
Sa, 04.02. 6:30 14 3 22 20° N
Sa, 04.02. 6:20 14 3 - 20° N
Sa, 04.02. 6:10 17 3 - 20° N
Sa, 04.02. 6:00 14 3 25 360° N
Sa, 04.02. 5:50 14 3 - 360° N
Sa, 04.02. 5:30 19 3 24 20° N
Sa, 04.02. 5:00 19 3 28 30° NO
Sa, 04.02. 4:30 22 4 29 30° NO
Sa, 04.02. 4:00 24 4 28 40° NO
Ortszeit Untergrenze Bedeckung Gattung
total tief tief mittel hoch
Sa, 04.02. 7:00 630 m 2/8 2/8 - - -
Sa, 04.02. 1:00 630 m 8/8 8/8 - - -
Fr, 03.02. 19:00 570 m 7/8 7/8 - - -
Fr, 03.02. 13:00 1080 m 7/8 7/8 - - -
Fr, 03.02. 7:00 270 m 7/8 7/8 - - -
Fr, 03.02. 1:00 240 m 8/8 8/8 - - -
Do, 02.02. 19:00 4200 m 8/8 8/8 - - -
Do, 02.02. 13:00 9000 m 7/8 0/8 - - -
Ortszeit Bedeckungsgrad in Achtel und Wolkenuntergrenze
Sa, 04.02. 7:00 2(630m)
Sa, 04.02. 6:40 5
Sa, 04.02. 6:30 5(660m)
Sa, 04.02. 6:20 5(660m)
Sa, 04.02. 6:10 5
Sa, 04.02. 6:00 7(660m) 7(840m)
Sa, 04.02. 5:50 7(660m) 7(840m)
Sa, 04.02. 5:30 4(780m)
Sa, 04.02. 5:00 1(540m) 8(780m)
Sa, 04.02. 4:30 7(780m)
Sa, 04.02. 4:00 8(750m)
Ortszeit Luftdruck NN (hPa) Tendenz (hPa in 3 Std.)
Sa, 04.02. 7:00 1034 + 3,4
Sa, 04.02. 1:00 1027 + 5,9
Fr, 03.02. 19:00 1015 + 3,3
Fr, 03.02. 13:00 1011 + 2,3
Fr, 03.02. 7:00 1009 - 3,2
Fr, 03.02. 1:00 1017 - 2,8
Do, 02.02. 19:00 1021 + 1,3
Do, 02.02. 13:00 1018 + 2,6
Ortszeit Luftdruck NN (hPa) Tendenz (hPa in 3 Std.)
Sa, 04.02. 7:00 1034 + 3,4
Sa, 04.02. 6:40 1034 keine Meldung
Sa, 04.02. 6:30 1034 + 3,3
Sa, 04.02. 6:20 1034 keine Meldung
Sa, 04.02. 6:10 1034 keine Meldung
Sa, 04.02. 6:00 1034 + 3,9
Sa, 04.02. 5:50 1034 keine Meldung
Sa, 04.02. 5:30 1033 + 4,0
Sa, 04.02. 5:00 1032 + 3,9
Sa, 04.02. 4:30 1032 + 3,7
Sa, 04.02. 4:00 1031 + 3,8
Ortszeit Schneehöhe (cm)
Sa, 04.02. 7:00 0
Sa, 04.02. 1:00 0
Fr, 03.02. 19:00 0
Fr, 03.02. 13:00 0
Fr, 03.02. 7:00 0
Fr, 03.02. 1:00 0
Do, 02.02. 19:00 0
Do, 02.02. 13:00 0
Ortszeit Schneehöhe (cm)
Sa, 04.02. 7:00 0
Sa, 04.02. 6:40 0
Sa, 04.02. 6:30 0
Sa, 04.02. 6:20 0
Sa, 04.02. 6:10 0
Sa, 04.02. 6:00 0
Sa, 04.02. 5:50 0
Sa, 04.02. 5:30 0
Sa, 04.02. 5:00 0
Sa, 04.02. 4:30 0
Sa, 04.02. 4:00 0
Link zu dieser Seite / Seite empfehlen

Das Wetter in ...